Belmore, Ohio
Current Conditions -  °F | °C
As of 6:53 AM on Monday 20 Oct 2014 (Local Time) from KFDY Reporting Station
Broken Clouds Broken Clouds  
Wind Chill:   Ceiling: 11000
Heat Index:   Visibility: 10mi
Dew Point:   Wind: 9mph
Humidity: 80%   Direction: 200°SSW
Pressure: 29.92"   Gusts: NA
Location:  41.15°N, 83.94°W
Report Text: KFDY 201053Z AUTO 20008KT 10SM BKN110 09/06 A2992 RMK AO2 SLP132 T00890056
Loading
Personal Weather Stations






























Interactive Weather Map
Tropical Storm Tracking
New forecast layout! Learn more

10-Day Weather Forecast

Advertisements
Track Severe Weather on mobile